createdAt,value
2018-04-26T00:01:20.289Z,4.90
2018-04-26T00:03:47.796Z,5.30
2018-04-26T00:06:15.357Z,5.83
2018-04-26T00:08:42.863Z,5.33
2018-04-26T00:11:11.162Z,4.60
2018-04-26T00:13:38.683Z,5.30
2018-04-26T00:16:06.169Z,4.90
2018-04-26T00:18:34.406Z,5.27
2018-04-26T00:21:01.923Z,4.73
2018-04-26T00:23:29.463Z,4.77
2018-04-26T00:25:57.719Z,5.17
2018-04-26T00:28:25.193Z,5.30
2018-04-26T00:30:52.710Z,5.13
2018-04-26T00:33:20.207Z,4.67
2018-04-26T00:35:47.744Z,5.10
2018-04-26T00:38:15.245Z,5.03
2018-04-26T00:40:42.739Z,5.30
2018-04-26T00:43:10.249Z,5.63
2018-04-26T00:45:38.523Z,5.80
2018-04-26T00:48:06.060Z,5.73
2018-04-26T00:50:33.507Z,6.53
2018-04-26T00:53:01.026Z,6.50
2018-04-26T00:55:29.218Z,7.73
2018-04-26T00:57:56.691Z,7.47
2018-04-26T01:00:24.219Z,7.40
2018-04-26T01:02:51.801Z,8.03
2018-04-26T01:05:19.281Z,7.63
2018-04-26T01:07:47.587Z,7.20
2018-04-26T01:10:15.085Z,7.13
2018-04-26T01:12:42.677Z,7.67
2018-04-26T01:15:10.946Z,6.80
2018-04-26T01:17:38.433Z,6.80
2018-04-26T01:20:06.031Z,6.23
2018-04-26T01:22:34.268Z,6.60
2018-04-26T01:25:01.784Z,6.30
2018-04-26T01:27:29.276Z,6.13
2018-04-26T01:29:56.773Z,5.73
2018-04-26T01:32:24.381Z,5.50
2018-04-26T01:34:52.625Z,5.97
2018-04-26T01:37:31.967Z,4.83
2018-04-26T01:39:59.536Z,6.57
2018-04-26T01:42:27.078Z,6.80
2018-04-26T01:44:54.552Z,6.53
2018-04-26T01:47:22.062Z,5.70
2018-04-26T01:49:50.461Z,6.00
2018-04-26T01:52:18.062Z,5.50
2018-04-26T01:54:46.887Z,5.63
2018-04-26T01:57:14.383Z,5.70
2018-04-26T01:59:41.896Z,5.03
2018-04-26T02:02:09.373Z,5.30
2018-04-26T02:04:36.906Z,5.20
2018-04-26T02:07:04.379Z,5.13
2018-04-26T02:09:31.863Z,5.07
2018-04-26T02:11:59.369Z,5.23
2018-04-26T02:14:26.876Z,5.40
2018-04-26T02:16:54.363Z,5.57
2018-04-26T02:19:22.720Z,4.73
2018-04-26T02:21:50.199Z,5.27
2018-04-26T02:24:18.437Z,5.50
2018-04-26T02:26:45.976Z,5.03
2018-04-26T02:29:13.469Z,5.50
2018-04-26T02:31:40.981Z,5.63
2018-04-26T02:34:08.494Z,5.90
2018-04-26T02:36:35.995Z,4.53
2018-04-26T02:39:03.520Z,4.90
2018-04-26T02:41:31.819Z,4.80
2018-04-26T02:43:59.319Z,4.80
2018-04-26T02:46:26.846Z,4.90
2018-04-26T02:48:54.348Z,5.83
2018-04-26T02:51:21.843Z,5.57
2018-04-26T02:53:49.370Z,5.13
2018-04-26T02:56:17.665Z,5.00
2018-04-26T02:58:45.929Z,5.23
2018-04-26T03:01:14.195Z,5.20
2018-04-26T03:03:42.494Z,4.70
2018-04-26T03:06:11.170Z,5.10
2018-04-26T03:08:39.408Z,5.87
2018-04-26T03:11:06.947Z,4.67
2018-04-26T03:13:34.436Z,4.70
2018-04-26T03:16:01.928Z,5.60
2018-04-26T03:18:30.205Z,5.60
2018-04-26T03:20:57.705Z,5.70
2018-04-26T03:23:26.029Z,6.23
2018-04-26T03:25:54.326Z,5.70
2018-04-26T03:28:21.818Z,6.40
2018-04-26T03:30:49.306Z,5.80
2018-04-26T03:33:16.815Z,5.33
2018-04-26T03:35:44.306Z,4.87
2018-04-26T03:38:11.816Z,5.43
2018-04-26T03:40:40.199Z,4.63
2018-04-26T03:43:07.727Z,4.60
2018-04-26T03:45:35.986Z,4.53
2018-04-26T03:48:03.493Z,5.13
2018-04-26T03:50:30.978Z,5.00
2018-04-26T03:52:58.496Z,4.47
2018-04-26T03:55:26.779Z,4.90
2018-04-26T03:57:54.277Z,5.70
2018-04-26T04:00:33.670Z,6.53
2018-04-26T04:03:13.128Z,5.23
2018-04-26T04:05:52.438Z,4.93
2018-04-26T04:08:19.923Z,5.90
2018-04-26T04:10:47.435Z,5.90
2018-04-26T04:13:14.937Z,5.40
2018-04-26T04:15:42.413Z,6.03
2018-04-26T04:18:09.904Z,6.00
2018-04-26T04:20:38.173Z,5.70
2018-04-26T04:23:05.694Z,6.20
2018-04-26T04:25:33.185Z,6.20
2018-04-26T04:28:00.751Z,5.77
2018-04-26T04:30:28.226Z,6.40
2018-04-26T04:32:55.729Z,6.40
2018-04-26T04:35:23.280Z,6.10
2018-04-26T04:37:51.711Z,6.80
2018-04-26T04:40:19.966Z,6.63
2018-04-26T04:42:47.469Z,6.63
2018-04-26T04:45:15.026Z,6.67
2018-04-26T04:47:42.515Z,7.23
2018-04-26T04:50:10.101Z,8.20
2018-04-26T04:52:38.353Z,7.93
2018-04-26T04:55:05.860Z,8.33
2018-04-26T04:57:33.363Z,7.50
2018-04-26T05:00:01.066Z,7.90
2018-04-26T05:02:29.309Z,7.13
2018-04-26T05:04:56.816Z,6.53
2018-04-26T05:07:25.133Z,6.93
2018-04-26T05:09:52.605Z,7.60
2018-04-26T05:12:20.899Z,7.27
2018-04-26T05:14:48.406Z,7.43
2018-04-26T05:17:16.672Z,6.63
2018-04-26T05:19:44.322Z,7.00
2018-04-26T05:22:11.726Z,6.87
2018-04-26T05:24:39.226Z,7.83
2018-04-26T05:27:07.510Z,8.77
2018-04-26T05:29:35.019Z,6.53
2018-04-26T05:32:02.590Z,6.60
2018-04-26T05:34:30.176Z,6.67
2018-04-26T05:36:58.442Z,5.87
2018-04-26T05:39:26.792Z,6.73
2018-04-26T05:41:54.342Z,6.33
2018-04-26T05:44:21.860Z,7.13
2018-04-26T05:46:49.339Z,8.00
2018-04-26T05:49:16.867Z,7.53
2018-04-26T05:51:44.401Z,6.77
2018-04-26T05:54:12.034Z,6.10
2018-04-26T05:56:39.545Z,6.00
2018-04-26T05:59:07.072Z,5.60
2018-04-26T06:01:35.360Z,6.00
2018-04-26T06:04:03.691Z,5.60
2018-04-26T06:06:31.186Z,5.80
2018-04-26T06:08:59.489Z,6.03
2018-04-26T06:11:26.988Z,6.33
2018-04-26T06:13:54.473Z,6.37
2018-04-26T06:16:21.972Z,6.53
2018-04-26T06:18:49.530Z,7.40
2018-04-26T06:21:17.028Z,6.43
2018-04-26T06:23:44.523Z,5.93
2018-04-26T06:26:12.006Z,6.37
2018-04-26T06:28:39.527Z,6.63
2018-04-26T06:31:07.804Z,7.90
2018-04-26T06:33:36.060Z,6.60
2018-04-26T06:36:03.579Z,6.83
2018-04-26T06:38:31.047Z,6.93
2018-04-26T06:40:58.543Z,7.03
2018-04-26T06:43:26.051Z,6.07
2018-04-26T06:45:53.625Z,6.80
2018-04-26T06:48:21.145Z,6.47
2018-04-26T06:50:48.667Z,10.60
2018-04-26T06:53:16.144Z,7.63
2018-04-26T06:55:44.410Z,7.10
2018-04-26T06:58:11.960Z,6.93
2018-04-26T07:00:39.452Z,6.33
2018-04-26T07:03:07.069Z,6.77
2018-04-26T07:05:34.586Z,6.90
2018-04-26T07:08:02.077Z,7.23
2018-04-26T07:10:29.552Z,6.90
2018-04-26T07:12:57.061Z,5.60
2018-04-26T07:15:24.552Z,6.07
2018-04-26T07:17:52.053Z,5.50
2018-04-26T07:20:19.567Z,6.73
2018-04-26T07:22:47.053Z,6.13
2018-04-26T07:25:15.313Z,6.73
2018-04-26T07:27:43.573Z,5.83
2018-04-26T07:30:11.053Z,5.73
2018-04-26T07:32:38.619Z,5.03
2018-04-26T07:35:06.863Z,5.90
2018-04-26T07:37:34.337Z,5.90
2018-04-26T07:40:01.846Z,5.50
2018-04-26T07:42:29.335Z,5.30
2018-04-26T07:44:56.814Z,5.57
2018-04-26T07:47:24.353Z,5.40
2018-04-26T07:49:51.865Z,4.97
2018-04-26T07:52:20.116Z,5.00
2018-04-26T07:54:48.414Z,5.00
2018-04-26T07:57:15.908Z,4.83
2018-04-26T07:59:43.404Z,5.23
2018-04-26T08:02:11.668Z,5.50
2018-04-26T08:04:39.169Z,5.10
2018-04-26T08:07:06.689Z,4.70
2018-04-26T08:09:34.952Z,5.20
2018-04-26T08:12:02.444Z,5.10
2018-04-26T08:14:29.985Z,4.23
2018-04-26T08:16:58.245Z,5.10
2018-04-26T08:19:25.817Z,5.13
2018-04-26T08:21:54.093Z,4.50
2018-04-26T08:24:22.384Z,4.80
2018-04-26T08:26:50.646Z,4.87
2018-04-26T08:29:19.892Z,4.93
2018-04-26T08:31:47.417Z,4.67
2018-04-26T08:34:14.912Z,5.33
2018-04-26T08:36:42.406Z,5.20
2018-04-26T08:39:09.940Z,4.50
2018-04-26T08:41:37.491Z,4.80
2018-04-26T08:44:05.006Z,4.40
2018-04-26T08:46:32.673Z,4.50
2018-04-26T08:49:00.168Z,4.70
2018-04-26T08:51:27.652Z,4.80
2018-04-26T08:53:55.186Z,5.03
2018-04-26T08:56:22.690Z,5.20
2018-04-26T08:58:50.930Z,4.57
2018-04-26T09:01:18.460Z,4.60
2018-04-26T09:03:45.953Z,4.23
2018-04-26T09:06:13.527Z,4.70
2018-04-26T09:08:41.830Z,4.90
2018-04-26T09:11:09.323Z,4.43
2018-04-26T09:13:36.844Z,4.70
2018-04-26T09:16:04.387Z,5.03
2018-04-26T09:18:31.877Z,5.00
2018-04-26T09:20:59.480Z,4.80
2018-04-26T09:23:27.053Z,4.93
2018-04-26T09:25:55.319Z,4.70
2018-04-26T09:28:22.813Z,4.50
2018-04-26T09:30:50.357Z,4.43
2018-04-26T09:33:17.857Z,4.20
2018-04-26T09:35:45.343Z,4.50
2018-04-26T09:38:12.855Z,4.20
2018-04-26T09:40:40.352Z,4.60
2018-04-26T09:43:07.884Z,4.37
2018-04-26T09:45:35.472Z,4.73
2018-04-26T09:48:03.008Z,4.53
2018-04-26T09:50:30.516Z,4.50
2018-04-26T09:52:58.799Z,4.50
2018-04-26T09:55:27.159Z,4.60
2018-04-26T09:57:54.635Z,5.00
2018-04-26T10:00:27.911Z,4.80
2018-04-26T10:02:55.463Z,5.20
2018-04-26T10:05:28.677Z,5.13
2018-04-26T10:07:56.331Z,5.17
2018-04-26T10:10:24.582Z,5.10
2018-04-26T10:12:53.660Z,5.53
2018-04-26T10:15:21.187Z,4.83
2018-04-26T10:17:48.673Z,5.90
2018-04-26T10:20:16.174Z,4.50
2018-04-26T10:22:44.501Z,4.87
2018-04-26T10:25:11.990Z,5.00
2018-04-26T10:27:39.540Z,5.57
2018-04-26T10:30:07.078Z,4.57
2018-04-26T10:32:34.579Z,4.70
2018-04-26T10:35:02.908Z,6.17
2018-04-26T10:37:30.470Z,4.97
2018-04-26T10:39:57.950Z,5.10
2018-04-26T10:42:25.460Z,4.77
2018-04-26T10:44:52.967Z,4.67
2018-04-26T10:47:20.492Z,5.07
2018-04-26T10:49:48.900Z,5.20
2018-04-26T10:52:16.397Z,3.90
2018-04-26T10:54:43.901Z,5.00
2018-04-26T10:57:11.446Z,4.53
2018-04-26T10:59:38.979Z,4.50
2018-04-26T11:02:06.474Z,4.77
2018-04-26T11:04:34.047Z,4.57
2018-04-26T11:07:01.533Z,4.13
2018-04-26T11:09:29.772Z,3.73
2018-04-26T11:11:57.329Z,4.20
2018-04-26T11:14:24.820Z,4.20
2018-04-26T11:16:53.098Z,4.63
2018-04-26T11:19:21.346Z,4.77
2018-04-26T11:21:48.837Z,4.00
2018-04-26T11:24:17.220Z,3.97
2018-04-26T11:26:44.877Z,4.80
2018-04-26T11:29:13.356Z,3.63
2018-04-26T11:31:41.772Z,4.10
2018-04-26T11:34:09.263Z,5.50
2018-04-26T11:36:36.890Z,4.00
2018-04-26T11:39:04.381Z,4.57
2018-04-26T11:41:31.912Z,3.90
2018-04-26T11:43:59.429Z,4.20
2018-04-26T11:46:26.919Z,3.80
2018-04-26T11:48:54.410Z,3.23
2018-04-26T11:51:22.732Z,3.90
2018-04-26T11:53:50.349Z,3.27
2018-04-26T11:56:18.892Z,3.70
2018-04-26T11:58:46.737Z,4.20
2018-04-26T12:01:15.063Z,3.97
2018-04-26T12:03:42.603Z,3.37
2018-04-26T12:06:10.170Z,4.40
2018-04-26T12:08:37.713Z,4.43
2018-04-26T12:11:05.204Z,3.70
2018-04-26T12:13:32.893Z,3.90
2018-04-26T12:16:01.207Z,4.00
2018-04-26T12:18:29.012Z,4.00
2018-04-26T12:20:56.474Z,3.80
2018-04-26T12:23:24.250Z,3.43
2018-04-26T12:25:52.512Z,4.10
2018-04-26T12:28:20.102Z,4.07
2018-04-26T12:30:47.701Z,3.60
2018-04-26T12:33:15.192Z,3.67
2018-04-26T12:35:43.466Z,3.80
2018-04-26T12:38:11.725Z,4.07
2018-04-26T12:40:39.506Z,4.60
2018-04-26T12:43:07.808Z,4.30
2018-04-26T12:45:35.388Z,4.00
2018-04-26T12:48:03.105Z,4.07
2018-04-26T12:50:30.619Z,3.73
2018-04-26T12:52:58.114Z,4.80
2018-04-26T12:55:26.165Z,4.30
2018-04-26T12:57:53.776Z,3.93
2018-04-26T13:00:21.302Z,4.47
2018-04-26T13:02:49.574Z,4.20
2018-04-26T13:05:17.362Z,4.17
2018-04-26T13:07:44.984Z,4.67
2018-04-26T13:10:12.646Z,3.70
2018-04-26T13:12:40.171Z,4.27
2018-04-26T13:15:07.907Z,4.17
2018-04-26T13:17:36.186Z,5.07
2018-04-26T13:20:04.501Z,4.67
2018-04-26T13:22:31.993Z,4.60
2018-04-26T13:24:59.896Z,4.17
2018-04-26T13:27:27.482Z,4.43
2018-04-26T13:29:55.030Z,4.40
2018-04-26T13:32:22.592Z,4.37
2018-04-26T13:34:50.164Z,3.93
2018-04-26T13:37:17.702Z,4.53
2018-04-26T13:39:45.272Z,3.80
2018-04-26T13:42:12.753Z,4.03
2018-04-26T13:44:40.361Z,4.27
2018-04-26T13:47:08.732Z,4.70
2018-04-26T13:49:36.546Z,4.07
2018-04-26T13:52:04.145Z,3.90
2018-04-26T13:54:31.659Z,3.73
2018-04-26T13:56:59.377Z,3.80
2018-04-26T13:59:26.905Z,3.83
2018-04-26T14:01:54.447Z,4.40
2018-04-26T14:04:22.020Z,3.97
2018-04-26T14:06:49.506Z,3.93
2018-04-26T14:09:17.128Z,4.30
2018-04-26T14:11:44.692Z,4.07
2018-04-26T14:14:13.385Z,4.20
2018-04-26T14:16:40.940Z,3.43
2018-04-26T14:19:08.475Z,4.03
2018-04-26T14:21:36.191Z,3.60
2018-04-26T14:24:03.806Z,3.73
2018-04-26T14:26:31.307Z,3.43
2018-04-26T14:28:59.863Z,3.60
2018-04-26T14:31:27.535Z,3.80
2018-04-26T14:33:55.506Z,3.40
2018-04-26T14:36:23.800Z,3.70
2018-04-26T14:38:51.287Z,3.80
2018-04-26T14:41:18.877Z,3.43
2018-04-26T14:43:46.411Z,3.93
2018-04-26T14:46:13.982Z,3.97
2018-04-26T14:48:42.254Z,3.93
2018-04-26T14:51:09.885Z,3.50
2018-04-26T14:53:37.456Z,3.40
2018-04-26T14:56:05.126Z,3.90
2018-04-26T14:58:32.720Z,3.70
2018-04-26T15:01:00.229Z,3.80
2018-04-26T15:03:27.729Z,3.80
2018-04-26T15:05:55.289Z,4.23
2018-04-26T15:08:22.820Z,3.73
2018-04-26T15:10:51.346Z,4.20
2018-04-26T15:13:19.686Z,3.77
2018-04-26T15:15:47.489Z,3.60
2018-04-26T15:18:15.746Z,4.17
2018-04-26T15:20:43.261Z,3.90
2018-04-26T15:23:10.765Z,4.17
2018-04-26T15:25:39.502Z,3.60
2018-04-26T15:28:07.069Z,3.50
2018-04-26T15:30:34.567Z,3.13
2018-04-26T15:33:02.151Z,3.60
2018-04-26T15:35:29.809Z,3.90
2018-04-26T15:37:58.238Z,3.33
2018-04-26T15:40:25.733Z,4.20
2018-04-26T15:42:53.853Z,3.70
2018-04-26T15:45:21.518Z,4.10
2018-04-26T15:47:49.050Z,3.57
2018-04-26T15:50:42.545Z,3.80
2018-04-26T15:53:21.975Z,3.67
2018-04-26T15:56:01.306Z,4.03
2018-04-26T16:02:19.388Z,3.70
2018-04-26T16:04:58.718Z,3.33
2018-04-26T16:07:54.493Z,3.70
2018-04-26T16:10:40.581Z,3.33
2018-04-26T16:13:26.573Z,3.40
2018-04-26T16:16:12.592Z,2.77
2018-04-26T16:18:51.951Z,3.70
2018-04-26T16:21:35.476Z,3.33
2018-04-26T16:27:29.456Z,3.53
2018-04-26T16:30:08.873Z,3.20
2018-04-26T16:32:48.957Z,3.10
2018-04-26T16:35:28.253Z,3.60
2018-04-26T16:38:13.610Z,3.77
2018-04-26T16:40:42.030Z,4.20
2018-04-26T16:43:09.678Z,4.33
2018-04-26T16:45:37.688Z,4.23
2018-04-26T16:48:06.081Z,3.83
2018-04-26T16:50:33.720Z,4.20
2018-04-26T16:53:01.358Z,3.70
2018-04-26T16:55:28.862Z,3.37
2018-04-26T16:57:56.384Z,3.60
2018-04-26T17:00:23.984Z,3.53
2018-04-26T17:02:51.528Z,4.03
2018-04-26T17:05:19.843Z,3.50
2018-04-26T17:07:48.298Z,3.50
2018-04-26T17:10:16.699Z,3.37
2018-04-26T17:12:45.099Z,3.53
2018-04-26T17:15:12.615Z,3.70
2018-04-26T17:17:40.275Z,4.10
2018-04-26T17:20:07.966Z,3.30
2018-04-26T17:22:36.243Z,3.17
2018-04-26T17:25:04.268Z,3.00
2018-04-26T17:27:31.780Z,3.50
2018-04-26T17:29:59.914Z,2.83
2018-04-26T17:32:28.171Z,2.40
2018-04-26T17:34:55.796Z,3.20
2018-04-26T17:37:23.347Z,3.27
2018-04-26T17:39:50.928Z,2.97
2018-04-26T17:42:18.545Z,3.07
2018-04-26T17:44:45.980Z,3.33
2018-04-26T17:47:13.488Z,3.50
2018-04-26T17:49:41.013Z,2.70
2018-04-26T17:52:08.512Z,3.30
2018-04-26T17:54:37.035Z,3.13
2018-04-26T17:57:04.551Z,2.60
2018-04-26T17:59:32.058Z,2.40
2018-04-26T18:01:59.599Z,2.70
2018-04-26T18:04:27.079Z,3.53
2018-04-26T18:06:54.573Z,3.00
2018-04-26T18:09:22.209Z,2.80
2018-04-26T18:11:50.456Z,2.70
2018-04-26T18:14:17.927Z,2.87
2018-04-26T18:16:45.447Z,2.90
2018-04-26T18:19:12.934Z,3.90
2018-04-26T18:21:40.492Z,3.20
2018-04-26T18:24:08.122Z,2.80
2018-04-26T18:26:35.603Z,3.00
2018-04-26T18:29:03.081Z,3.10
2018-04-26T18:31:30.597Z,3.87
2018-04-26T18:33:58.414Z,3.10
2018-04-26T18:36:26.694Z,3.53
2018-04-26T18:38:54.974Z,3.30
2018-04-26T18:41:22.486Z,3.30
2018-04-26T18:43:49.972Z,3.97
2018-04-26T18:46:18.307Z,3.40
2018-04-26T18:48:45.858Z,3.60
2018-04-26T18:51:13.377Z,3.37
2018-04-26T18:53:40.942Z,3.30
2018-04-26T18:56:08.471Z,3.90
2018-04-26T18:58:35.985Z,4.10
2018-04-26T19:01:03.487Z,3.47
2018-04-26T19:03:31.001Z,3.20
2018-04-26T19:05:58.540Z,2.93
2018-04-26T19:08:26.121Z,4.00
2018-04-26T19:10:54.368Z,3.50
2018-04-26T19:13:21.868Z,3.20
2018-04-26T19:15:49.502Z,3.40
2018-04-26T19:18:16.972Z,4.00
2018-04-26T19:20:44.731Z,3.10
2018-04-26T19:23:12.529Z,3.73
2018-04-26T19:25:40.081Z,3.90
2018-04-26T19:28:07.646Z,4.00
2018-04-26T19:30:36.067Z,3.60
2018-04-26T19:33:03.850Z,3.50
2018-04-26T19:35:31.653Z,3.20
2018-04-26T19:38:00.000Z,3.50
2018-04-26T19:40:28.108Z,4.77
2018-04-26T19:42:56.040Z,3.50
2018-04-26T19:45:23.697Z,4.60
2018-04-26T19:47:51.348Z,4.00
2018-04-26T19:50:19.117Z,3.63
2018-04-26T19:52:46.703Z,3.53
2018-04-26T19:55:15.018Z,4.03
2018-04-26T19:57:43.747Z,2.90
2018-04-26T20:00:11.292Z,3.30
2018-04-26T20:02:38.925Z,3.20
2018-04-26T20:05:07.557Z,3.20
2018-04-26T20:07:35.222Z,3.90
2018-04-26T20:10:02.863Z,3.50
2018-04-26T20:12:30.374Z,3.97
2018-04-26T20:14:57.903Z,4.40
2018-04-26T20:17:25.459Z,4.17
2018-04-26T20:19:53.150Z,4.10
2018-04-26T20:22:20.693Z,3.23
2018-04-26T20:24:48.234Z,3.60
2018-04-26T20:27:15.857Z,4.97
2018-04-26T20:29:43.415Z,4.43
2018-04-26T20:32:10.918Z,4.17
2018-04-26T20:34:39.220Z,3.63
2018-04-26T20:37:06.786Z,3.90
2018-04-26T20:39:35.051Z,3.73
2018-04-26T20:42:03.408Z,4.63
2018-04-26T20:44:42.703Z,5.47
2018-04-26T20:47:16.998Z,4.57
2018-04-26T20:49:45.273Z,4.80
2018-04-26T20:52:13.561Z,4.60
2018-04-26T20:54:41.073Z,5.10
2018-04-26T20:57:11.978Z,5.97
2018-04-26T20:59:42.864Z,5.37
2018-04-26T21:02:11.260Z,4.97
2018-04-26T21:04:39.569Z,4.57
2018-04-26T21:07:07.104Z,4.77
2018-04-26T21:09:34.665Z,4.60
2018-04-26T21:12:02.191Z,4.53
2018-04-26T21:14:29.713Z,8.70
2018-04-26T21:16:57.302Z,4.70
2018-04-26T21:19:24.865Z,3.90
2018-04-26T21:21:52.396Z,4.40
2018-04-26T21:24:19.990Z,4.70
2018-04-26T21:26:48.374Z,3.90
2018-04-26T21:29:16.711Z,5.10
2018-04-26T21:31:44.343Z,3.87
2018-04-26T21:34:11.887Z,3.90
2018-04-26T21:36:39.425Z,4.17
2018-04-26T21:39:06.990Z,3.60
2018-04-26T21:41:35.281Z,4.67
2018-04-26T21:44:02.786Z,3.87
2018-04-26T21:46:30.336Z,5.00
2018-04-26T21:48:57.869Z,3.90
2018-04-26T21:51:31.141Z,4.70
2018-04-26T21:54:05.152Z,3.57
2018-04-26T21:56:39.217Z,3.30
2018-04-26T21:59:12.377Z,4.20
2018-04-26T22:01:45.598Z,4.40
2018-04-26T22:04:13.211Z,4.93
2018-04-26T22:06:40.739Z,4.60
2018-04-26T22:09:09.047Z,3.13
2018-04-26T22:11:36.591Z,4.00
2018-04-26T22:14:04.878Z,4.40
2018-04-26T22:16:32.472Z,3.60
2018-04-26T22:19:00.055Z,4.33
2018-04-26T22:21:27.559Z,4.07
2018-04-26T22:23:55.101Z,2.60
2018-04-26T22:26:23.450Z,3.70
2018-04-26T22:28:50.992Z,3.43
2018-04-26T22:31:18.553Z,4.40
2018-04-26T22:33:46.084Z,3.87
2018-04-26T22:36:13.617Z,5.40
2018-04-26T22:38:41.917Z,4.93
2018-04-26T22:41:09.694Z,3.20
2018-04-26T22:43:37.209Z,3.57
2018-04-26T22:46:05.507Z,4.73
2018-04-26T22:48:33.057Z,4.17
2018-04-26T22:51:00.579Z,4.20
2018-04-26T22:53:28.882Z,4.33
2018-04-26T22:55:57.207Z,3.40
2018-04-26T22:58:24.734Z,3.27
2018-04-26T23:00:52.265Z,2.80
2018-04-26T23:03:20.590Z,3.10
2018-04-26T23:05:48.116Z,2.90
2018-04-26T23:08:15.688Z,3.30
2018-04-26T23:10:43.257Z,3.97
2018-04-26T23:13:10.790Z,4.00
2018-04-26T23:15:39.086Z,3.53
2018-04-26T23:18:06.733Z,4.40
2018-04-26T23:20:34.252Z,3.77
2018-04-26T23:23:01.781Z,3.50
2018-04-26T23:25:29.332Z,4.33
2018-04-26T23:27:56.845Z,3.30
2018-04-26T23:30:25.137Z,3.90
2018-04-26T23:32:52.725Z,3.30
2018-04-26T23:35:20.234Z,3.93
2018-04-26T23:37:48.634Z,3.60
2018-04-26T23:40:16.187Z,3.43
2018-04-26T23:42:44.468Z,3.47
2018-04-26T23:45:11.983Z,3.37
2018-04-26T23:47:39.523Z,3.73
2018-04-26T23:50:07.047Z,3.80
2018-04-26T23:52:34.590Z,3.63
2018-04-26T23:55:02.916Z,3.90
2018-04-26T23:57:30.447Z,4.10
2018-04-26T23:59:58.036Z,3.60
